sensor_id;sensor_type;location;lat;lon;timestamp;P1;durP1;ratioP1;P2;durP2;ratioP2
75823;SDS011;64457;51.976;9.834;2023-05-07T00:02:09;39.80;;;22.40;;
75823;SDS011;64457;51.976;9.834;2023-05-07T00:04:37;38.70;;;22.30;;
75823;SDS011;64457;51.976;9.834;2023-05-07T00:07:04;39.83;;;22.80;;
75823;SDS011;64457;51.976;9.834;2023-05-07T00:09:31;39.77;;;22.77;;
75823;SDS011;64457;51.976;9.834;2023-05-07T00:11:59;37.47;;;21.80;;
75823;SDS011;64457;51.976;9.834;2023-05-07T00:14:27;43.90;;;23.37;;
75823;SDS011;64457;51.976;9.834;2023-05-07T00:16:55;41.43;;;23.47;;
75823;SDS011;64457;51.976;9.834;2023-05-07T00:19:22;41.10;;;22.33;;
75823;SDS011;64457;51.976;9.834;2023-05-07T00:21:49;39.23;;;22.70;;
75823;SDS011;64457;51.976;9.834;2023-05-07T00:24:18;40.93;;;23.77;;
75823;SDS011;64457;51.976;9.834;2023-05-07T00:26:46;35.80;;;21.70;;
75823;SDS011;64457;51.976;9.834;2023-05-07T00:29:13;38.20;;;22.27;;
75823;SDS011;64457;51.976;9.834;2023-05-07T00:31:41;36.77;;;21.97;;
75823;SDS011;64457;51.976;9.834;2023-05-07T00:34:09;45.23;;;23.73;;
75823;SDS011;64457;51.976;9.834;2023-05-07T00:36:36;40.37;;;23.50;;
75823;SDS011;64457;51.976;9.834;2023-05-07T00:39:03;40.47;;;23.50;;
75823;SDS011;64457;51.976;9.834;2023-05-07T00:41:32;44.70;;;24.40;;
75823;SDS011;64457;51.976;9.834;2023-05-07T00:43:59;43.03;;;24.17;;
75823;SDS011;64457;51.976;9.834;2023-05-07T00:46:27;41.10;;;24.40;;
75823;SDS011;64457;51.976;9.834;2023-05-07T00:48:58;41.60;;;24.40;;
75823;SDS011;64457;51.976;9.834;2023-05-07T00:51:26;47.47;;;25.10;;
75823;SDS011;64457;51.976;9.834;2023-05-07T00:53:54;48.00;;;25.90;;
75823;SDS011;64457;51.976;9.834;2023-05-07T00:56:22;43.17;;;25.67;;
75823;SDS011;64457;51.976;9.834;2023-05-07T00:58:50;47.37;;;26.20;;
75823;SDS011;64457;51.976;9.834;2023-05-07T01:01:17;46.30;;;25.53;;
75823;SDS011;64457;51.976;9.834;2023-05-07T01:03:45;45.77;;;26.00;;
75823;SDS011;64457;51.976;9.834;2023-05-07T01:06:14;46.23;;;26.70;;
75823;SDS011;64457;51.976;9.834;2023-05-07T01:08:42;45.47;;;26.00;;
75823;SDS011;64457;51.976;9.834;2023-05-07T01:11:10;47.33;;;25.47;;
75823;SDS011;64457;51.976;9.834;2023-05-07T01:13:38;44.70;;;25.60;;
75823;SDS011;64457;51.976;9.834;2023-05-07T01:16:06;43.40;;;25.80;;
75823;SDS011;64457;51.976;9.834;2023-05-07T01:18:36;47.87;;;24.57;;
75823;SDS011;64457;51.976;9.834;2023-05-07T01:21:04;47.00;;;26.43;;
75823;SDS011;64457;51.976;9.834;2023-05-07T01:23:33;44.77;;;25.50;;
75823;SDS011;64457;51.976;9.834;2023-05-07T01:26:02;46.13;;;26.37;;
75823;SDS011;64457;51.976;9.834;2023-05-07T01:28:29;46.80;;;27.17;;
75823;SDS011;64457;51.976;9.834;2023-05-07T01:30:58;46.27;;;26.07;;
75823;SDS011;64457;51.976;9.834;2023-05-07T01:33:29;53.87;;;26.70;;
75823;SDS011;64457;51.976;9.834;2023-05-07T01:36:01;47.60;;;25.90;;
75823;SDS011;64457;51.976;9.834;2023-05-07T01:38:32;48.87;;;26.30;;
75823;SDS011;64457;51.976;9.834;2023-05-07T01:41:01;51.10;;;27.93;;
75823;SDS011;64457;51.976;9.834;2023-05-07T01:43:28;44.90;;;25.90;;
75823;SDS011;64457;51.976;9.834;2023-05-07T01:45:57;49.47;;;26.97;;
75823;SDS011;64457;51.976;9.834;2023-05-07T01:48:25;49.40;;;27.70;;
75823;SDS011;64457;51.976;9.834;2023-05-07T01:50:53;50.03;;;27.77;;
75823;SDS011;64457;51.976;9.834;2023-05-07T01:53:21;51.00;;;26.80;;
75823;SDS011;64457;51.976;9.834;2023-05-07T01:55:50;51.53;;;28.60;;
75823;SDS011;64457;51.976;9.834;2023-05-07T01:58:17;52.00;;;27.87;;
75823;SDS011;64457;51.976;9.834;2023-05-07T02:00:45;48.20;;;27.87;;
75823;SDS011;64457;51.976;9.834;2023-05-07T02:03:12;48.30;;;27.23;;
75823;SDS011;64457;51.976;9.834;2023-05-07T02:05:39;49.80;;;28.03;;
75823;SDS011;64457;51.976;9.834;2023-05-07T02:08:07;54.87;;;28.63;;
75823;SDS011;64457;51.976;9.834;2023-05-07T02:10:34;46.90;;;28.20;;
75823;SDS011;64457;51.976;9.834;2023-05-07T02:13:03;49.40;;;27.80;;
75823;SDS011;64457;51.976;9.834;2023-05-07T02:15:30;47.40;;;26.40;;
75823;SDS011;64457;51.976;9.834;2023-05-07T02:17:58;46.20;;;25.70;;
75823;SDS011;64457;51.976;9.834;2023-05-07T02:20:28;49.33;;;28.30;;
75823;SDS011;64457;51.976;9.834;2023-05-07T02:22:56;50.47;;;26.13;;
75823;SDS011;64457;51.976;9.834;2023-05-07T02:25:24;47.97;;;26.47;;
75823;SDS011;64457;51.976;9.834;2023-05-07T02:27:51;50.10;;;25.77;;
75823;SDS011;64457;51.976;9.834;2023-05-07T02:30:20;54.13;;;27.03;;
75823;SDS011;64457;51.976;9.834;2023-05-07T02:32:47;49.33;;;26.37;;
75823;SDS011;64457;51.976;9.834;2023-05-07T02:35:15;50.60;;;27.13;;
75823;SDS011;64457;51.976;9.834;2023-05-07T02:37:42;49.87;;;25.63;;
75823;SDS011;64457;51.976;9.834;2023-05-07T02:40:10;46.70;;;26.50;;
75823;SDS011;64457;51.976;9.834;2023-05-07T02:42:39;52.73;;;26.13;;
75823;SDS011;64457;51.976;9.834;2023-05-07T02:45:07;47.57;;;26.40;;
75823;SDS011;64457;51.976;9.834;2023-05-07T02:47:37;45.27;;;25.93;;
75823;SDS011;64457;51.976;9.834;2023-05-07T02:50:05;52.73;;;25.30;;
75823;SDS011;64457;51.976;9.834;2023-05-07T02:52:34;46.07;;;25.87;;
75823;SDS011;64457;51.976;9.834;2023-05-07T02:55:01;47.57;;;25.77;;
75823;SDS011;64457;51.976;9.834;2023-05-07T02:57:28;45.63;;;25.07;;
75823;SDS011;64457;51.976;9.834;2023-05-07T02:59:57;53.37;;;25.07;;
75823;SDS011;64457;51.976;9.834;2023-05-07T03:02:25;47.20;;;25.20;;
75823;SDS011;64457;51.976;9.834;2023-05-07T03:04:54;49.77;;;25.70;;
75823;SDS011;64457;51.976;9.834;2023-05-07T03:07:21;46.53;;;25.17;;
75823;SDS011;64457;51.976;9.834;2023-05-07T03:09:48;44.73;;;24.93;;
75823;SDS011;64457;51.976;9.834;2023-05-07T03:12:16;51.93;;;24.90;;
75823;SDS011;64457;51.976;9.834;2023-05-07T03:14:43;48.40;;;24.87;;
75823;SDS011;64457;51.976;9.834;2023-05-07T03:17:10;43.43;;;24.20;;
75823;SDS011;64457;51.976;9.834;2023-05-07T03:19:38;42.03;;;24.07;;
75823;SDS011;64457;51.976;9.834;2023-05-07T03:22:06;45.33;;;23.33;;
75823;SDS011;64457;51.976;9.834;2023-05-07T03:24:34;53.47;;;26.00;;
75823;SDS011;64457;51.976;9.834;2023-05-07T03:27:01;46.00;;;22.90;;
75823;SDS011;64457;51.976;9.834;2023-05-07T03:29:28;48.60;;;25.00;;
75823;SDS011;64457;51.976;9.834;2023-05-07T03:31:57;44.97;;;23.83;;
75823;SDS011;64457;51.976;9.834;2023-05-07T03:34:26;44.60;;;22.17;;
75823;SDS011;64457;51.976;9.834;2023-05-07T03:36:53;40.57;;;21.97;;
75823;SDS011;64457;51.976;9.834;2023-05-07T03:39:22;40.67;;;23.13;;
75823;SDS011;64457;51.976;9.834;2023-05-07T03:41:49;41.70;;;21.87;;
75823;SDS011;64457;51.976;9.834;2023-05-07T03:44:17;41.40;;;22.47;;
75823;SDS011;64457;51.976;9.834;2023-05-07T03:46:45;39.73;;;22.13;;
75823;SDS011;64457;51.976;9.834;2023-05-07T03:49:12;42.10;;;20.43;;
75823;SDS011;64457;51.976;9.834;2023-05-07T03:51:40;39.93;;;22.60;;
75823;SDS011;64457;51.976;9.834;2023-05-07T03:54:07;37.50;;;21.30;;
75823;SDS011;64457;51.976;9.834;2023-05-07T03:56:36;42.40;;;22.93;;
75823;SDS011;64457;51.976;9.834;2023-05-07T03:59:03;37.00;;;20.40;;
75823;SDS011;64457;51.976;9.834;2023-05-07T04:01:31;35.40;;;19.10;;
75823;SDS011;64457;51.976;9.834;2023-05-07T04:03:58;33.20;;;18.27;;
75823;SDS011;64457;51.976;9.834;2023-05-07T04:06:26;30.67;;;16.93;;
75823;SDS011;64457;51.976;9.834;2023-05-07T04:08:54;32.70;;;17.93;;
75823;SDS011;64457;51.976;9.834;2023-05-07T04:11:21;33.47;;;17.60;;
75823;SDS011;64457;51.976;9.834;2023-05-07T04:13:50;30.77;;;17.10;;
75823;SDS011;64457;51.976;9.834;2023-05-07T04:16:17;30.60;;;17.13;;
75823;SDS011;64457;51.976;9.834;2023-05-07T04:18:45;30.27;;;17.47;;
75823;SDS011;64457;51.976;9.834;2023-05-07T04:21:16;29.40;;;16.70;;
75823;SDS011;64457;51.976;9.834;2023-05-07T04:23:45;29.33;;;15.83;;
75823;SDS011;64457;51.976;9.834;2023-05-07T04:26:13;29.33;;;16.67;;
75823;SDS011;64457;51.976;9.834;2023-05-07T04:28:41;33.10;;;18.00;;
75823;SDS011;64457;51.976;9.834;2023-05-07T04:31:10;29.57;;;16.50;;
75823;SDS011;64457;51.976;9.834;2023-05-07T04:33:37;32.97;;;16.97;;
75823;SDS011;64457;51.976;9.834;2023-05-07T04:36:05;30.50;;;16.50;;
75823;SDS011;64457;51.976;9.834;2023-05-07T04:38:33;30.17;;;17.20;;
75823;SDS011;64457;51.976;9.834;2023-05-07T04:41:02;30.80;;;17.17;;
75823;SDS011;64457;51.976;9.834;2023-05-07T04:43:31;33.23;;;17.70;;
75823;SDS011;64457;51.976;9.834;2023-05-07T04:45:59;32.10;;;16.77;;
75823;SDS011;64457;51.976;9.834;2023-05-07T04:48:28;31.43;;;17.20;;
75823;SDS011;64457;51.976;9.834;2023-05-07T04:50:55;32.47;;;16.23;;
75823;SDS011;64457;51.976;9.834;2023-05-07T04:53:23;30.30;;;16.93;;
75823;SDS011;64457;51.976;9.834;2023-05-07T04:55:54;28.27;;;16.60;;
75823;SDS011;64457;51.976;9.834;2023-05-07T04:58:25;30.83;;;16.77;;
75823;SDS011;64457;51.976;9.834;2023-05-07T05:00:56;32.50;;;16.20;;
75823;SDS011;64457;51.976;9.834;2023-05-07T05:03:24;28.70;;;16.00;;
75823;SDS011;64457;51.976;9.834;2023-05-07T05:05:52;30.70;;;17.17;;
75823;SDS011;64457;51.976;9.834;2023-05-07T05:08:20;33.70;;;17.27;;
75823;SDS011;64457;51.976;9.834;2023-05-07T05:10:47;34.23;;;16.97;;
75823;SDS011;64457;51.976;9.834;2023-05-07T05:13:15;34.23;;;17.00;;
75823;SDS011;64457;51.976;9.834;2023-05-07T05:15:42;30.70;;;16.53;;
75823;SDS011;64457;51.976;9.834;2023-05-07T05:18:11;30.10;;;16.37;;
75823;SDS011;64457;51.976;9.834;2023-05-07T05:20:38;31.60;;;16.90;;
75823;SDS011;64457;51.976;9.834;2023-05-07T05:23:07;30.07;;;15.70;;
75823;SDS011;64457;51.976;9.834;2023-05-07T05:25:35;31.53;;;16.60;;
75823;SDS011;64457;51.976;9.834;2023-05-07T05:28:04;29.50;;;17.10;;
75823;SDS011;64457;51.976;9.834;2023-05-07T05:30:32;31.70;;;16.83;;
75823;SDS011;64457;51.976;9.834;2023-05-07T05:32:59;29.57;;;16.90;;
75823;SDS011;64457;51.976;9.834;2023-05-07T05:35:27;29.70;;;16.47;;
75823;SDS011;64457;51.976;9.834;2023-05-07T05:37:56;29.10;;;15.77;;
75823;SDS011;64457;51.976;9.834;2023-05-07T05:40:24;28.80;;;15.67;;
75823;SDS011;64457;51.976;9.834;2023-05-07T05:42:52;28.33;;;15.73;;
75823;SDS011;64457;51.976;9.834;2023-05-07T05:45:19;30.13;;;16.07;;
75823;SDS011;64457;51.976;9.834;2023-05-07T05:47:47;32.03;;;16.00;;
75823;SDS011;64457;51.976;9.834;2023-05-07T05:50:14;33.20;;;15.67;;
75823;SDS011;64457;51.976;9.834;2023-05-07T05:52:41;30.47;;;16.43;;
75823;SDS011;64457;51.976;9.834;2023-05-07T05:55:09;30.80;;;16.80;;
75823;SDS011;64457;51.976;9.834;2023-05-07T05:57:38;32.90;;;16.50;;
75823;SDS011;64457;51.976;9.834;2023-05-07T06:00:06;34.83;;;18.03;;
75823;SDS011;64457;51.976;9.834;2023-05-07T06:02:35;27.53;;;15.20;;
75823;SDS011;64457;51.976;9.834;2023-05-07T06:05:03;28.20;;;15.43;;
75823;SDS011;64457;51.976;9.834;2023-05-07T06:07:31;30.47;;;16.33;;
75823;SDS011;64457;51.976;9.834;2023-05-07T06:09:59;30.87;;;16.30;;
75823;SDS011;64457;51.976;9.834;2023-05-07T06:12:27;32.00;;;16.63;;
75823;SDS011;64457;51.976;9.834;2023-05-07T06:14:56;31.40;;;16.50;;
75823;SDS011;64457;51.976;9.834;2023-05-07T06:17:23;33.27;;;16.90;;
75823;SDS011;64457;51.976;9.834;2023-05-07T06:19:50;26.53;;;14.70;;
75823;SDS011;64457;51.976;9.834;2023-05-07T06:22:18;32.80;;;15.80;;
75823;SDS011;64457;51.976;9.834;2023-05-07T06:24:46;31.67;;;16.03;;
75823;SDS011;64457;51.976;9.834;2023-05-07T06:27:13;31.70;;;16.70;;
75823;SDS011;64457;51.976;9.834;2023-05-07T06:29:41;25.87;;;15.07;;
75823;SDS011;64457;51.976;9.834;2023-05-07T06:32:10;32.77;;;16.40;;
75823;SDS011;64457;51.976;9.834;2023-05-07T06:34:39;27.63;;;15.83;;
75823;SDS011;64457;51.976;9.834;2023-05-07T06:37:07;28.90;;;15.43;;
75823;SDS011;64457;51.976;9.834;2023-05-07T06:39:35;29.73;;;16.73;;
75823;SDS011;64457;51.976;9.834;2023-05-07T06:42:02;30.20;;;15.50;;
75823;SDS011;64457;51.976;9.834;2023-05-07T06:44:31;30.67;;;16.43;;
75823;SDS011;64457;51.976;9.834;2023-05-07T06:46:58;30.97;;;15.93;;
75823;SDS011;64457;51.976;9.834;2023-05-07T06:49:27;34.50;;;16.70;;
75823;SDS011;64457;51.976;9.834;2023-05-07T06:51:55;26.73;;;15.40;;
75823;SDS011;64457;51.976;9.834;2023-05-07T06:54:22;28.00;;;15.80;;
75823;SDS011;64457;51.976;9.834;2023-05-07T06:56:50;28.90;;;15.57;;
75823;SDS011;64457;51.976;9.834;2023-05-07T06:59:17;27.47;;;15.10;;
75823;SDS011;64457;51.976;9.834;2023-05-07T07:01:45;28.17;;;14.47;;
75823;SDS011;64457;51.976;9.834;2023-05-07T07:04:13;27.83;;;15.43;;
75823;SDS011;64457;51.976;9.834;2023-05-07T07:06:41;30.50;;;15.40;;
75823;SDS011;64457;51.976;9.834;2023-05-07T07:09:09;29.20;;;15.57;;
75823;SDS011;64457;51.976;9.834;2023-05-07T07:11:36;29.20;;;14.90;;
75823;SDS011;64457;51.976;9.834;2023-05-07T07:14:04;28.00;;;14.50;;
75823;SDS011;64457;51.976;9.834;2023-05-07T07:16:31;28.30;;;15.37;;
75823;SDS011;64457;51.976;9.834;2023-05-07T07:18:59;27.20;;;14.53;;
75823;SDS011;64457;51.976;9.834;2023-05-07T07:21:26;29.60;;;16.17;;
75823;SDS011;64457;51.976;9.834;2023-05-07T07:23:55;25.90;;;15.03;;
75823;SDS011;64457;51.976;9.834;2023-05-07T07:26:22;27.03;;;14.60;;
75823;SDS011;64457;51.976;9.834;2023-05-07T07:28:50;28.30;;;14.90;;
75823;SDS011;64457;51.976;9.834;2023-05-07T07:31:17;26.40;;;15.00;;
75823;SDS011;64457;51.976;9.834;2023-05-07T07:33:44;26.93;;;14.63;;
75823;SDS011;64457;51.976;9.834;2023-05-07T07:36:12;28.30;;;14.53;;
75823;SDS011;64457;51.976;9.834;2023-05-07T07:38:39;26.07;;;13.93;;
75823;SDS011;64457;51.976;9.834;2023-05-07T07:41:08;27.57;;;13.90;;
75823;SDS011;64457;51.976;9.834;2023-05-07T07:43:36;30.27;;;15.47;;
75823;SDS011;64457;51.976;9.834;2023-05-07T07:46:03;35.20;;;15.37;;
75823;SDS011;64457;51.976;9.834;2023-05-07T07:48:31;26.40;;;14.20;;
75823;SDS011;64457;51.976;9.834;2023-05-07T07:50:58;27.17;;;14.77;;
75823;SDS011;64457;51.976;9.834;2023-05-07T07:53:25;25.03;;;13.90;;
75823;SDS011;64457;51.976;9.834;2023-05-07T07:55:53;28.77;;;14.40;;
75823;SDS011;64457;51.976;9.834;2023-05-07T07:58:21;23.97;;;13.70;;
75823;SDS011;64457;51.976;9.834;2023-05-07T08:00:50;28.20;;;13.90;;
75823;SDS011;64457;51.976;9.834;2023-05-07T08:03:17;26.37;;;13.90;;
75823;SDS011;64457;51.976;9.834;2023-05-07T08:05:44;23.37;;;12.97;;
75823;SDS011;64457;51.976;9.834;2023-05-07T08:08:12;26.10;;;13.10;;
75823;SDS011;64457;51.976;9.834;2023-05-07T08:10:39;24.30;;;12.63;;
75823;SDS011;64457;51.976;9.834;2023-05-07T08:13:06;24.80;;;13.23;;
75823;SDS011;64457;51.976;9.834;2023-05-07T08:15:35;26.63;;;14.07;;
75823;SDS011;64457;51.976;9.834;2023-05-07T08:18:03;23.97;;;13.33;;
75823;SDS011;64457;51.976;9.834;2023-05-07T08:20:30;23.10;;;12.40;;
75823;SDS011;64457;51.976;9.834;2023-05-07T08:22:58;28.57;;;13.60;;
75823;SDS011;64457;51.976;9.834;2023-05-07T08:25:25;25.23;;;12.50;;
75823;SDS011;64457;51.976;9.834;2023-05-07T08:27:53;21.97;;;11.90;;
75823;SDS011;64457;51.976;9.834;2023-05-07T08:30:22;24.70;;;13.13;;
75823;SDS011;64457;51.976;9.834;2023-05-07T08:32:51;25.43;;;13.30;;
75823;SDS011;64457;51.976;9.834;2023-05-07T08:35:18;23.90;;;12.70;;
75823;SDS011;64457;51.976;9.834;2023-05-07T08:37:47;23.73;;;13.00;;
75823;SDS011;64457;51.976;9.834;2023-05-07T08:40:14;23.57;;;12.70;;
75823;SDS011;64457;51.976;9.834;2023-05-07T08:42:42;22.90;;;13.10;;
75823;SDS011;64457;51.976;9.834;2023-05-07T08:45:10;23.93;;;13.37;;
75823;SDS011;64457;51.976;9.834;2023-05-07T08:47:40;24.97;;;13.37;;
75823;SDS011;64457;51.976;9.834;2023-05-07T08:50:13;25.03;;;12.53;;
75823;SDS011;64457;51.976;9.834;2023-05-07T08:52:40;24.53;;;13.77;;
75823;SDS011;64457;51.976;9.834;2023-05-07T08:55:08;28.00;;;12.90;;
75823;SDS011;64457;51.976;9.834;2023-05-07T08:57:37;25.30;;;13.00;;
75823;SDS011;64457;51.976;9.834;2023-05-07T09:00:04;25.10;;;13.50;;
75823;SDS011;64457;51.976;9.834;2023-05-07T09:02:33;23.67;;;12.50;;
75823;SDS011;64457;51.976;9.834;2023-05-07T09:05:02;27.80;;;13.80;;
75823;SDS011;64457;51.976;9.834;2023-05-07T09:07:31;23.83;;;12.40;;
75823;SDS011;64457;51.976;9.834;2023-05-07T09:10:00;23.33;;;12.50;;
75823;SDS011;64457;51.976;9.834;2023-05-07T09:12:29;24.27;;;11.40;;
75823;SDS011;64457;51.976;9.834;2023-05-07T09:14:57;21.87;;;11.50;;
75823;SDS011;64457;51.976;9.834;2023-05-07T09:17:25;19.37;;;11.00;;
75823;SDS011;64457;51.976;9.834;2023-05-07T09:19:54;22.17;;;11.50;;
75823;SDS011;64457;51.976;9.834;2023-05-07T09:22:21;21.63;;;12.10;;
75823;SDS011;64457;51.976;9.834;2023-05-07T09:24:50;19.70;;;10.57;;
75823;SDS011;64457;51.976;9.834;2023-05-07T09:27:18;21.70;;;11.87;;
75823;SDS011;64457;51.976;9.834;2023-05-07T09:29:45;21.80;;;11.20;;
75823;SDS011;64457;51.976;9.834;2023-05-07T09:32:12;21.50;;;11.70;;
75823;SDS011;64457;51.976;9.834;2023-05-07T09:34:42;19.90;;;11.17;;
75823;SDS011;64457;51.976;9.834;2023-05-07T09:37:10;20.73;;;11.60;;
75823;SDS011;64457;51.976;9.834;2023-05-07T09:39:40;20.77;;;11.60;;
75823;SDS011;64457;51.976;9.834;2023-05-07T09:42:10;19.73;;;10.67;;
75823;SDS011;64457;51.976;9.834;2023-05-07T09:44:37;23.17;;;11.30;;
75823;SDS011;64457;51.976;9.834;2023-05-07T09:47:06;20.67;;;11.30;;
75823;SDS011;64457;51.976;9.834;2023-05-07T09:49:34;19.83;;;11.20;;
75823;SDS011;64457;51.976;9.834;2023-05-07T09:52:04;22.60;;;11.67;;
75823;SDS011;64457;51.976;9.834;2023-05-07T09:54:34;22.53;;;11.73;;
75823;SDS011;64457;51.976;9.834;2023-05-07T09:57:03;19.60;;;11.03;;
75823;SDS011;64457;51.976;9.834;2023-05-07T09:59:33;22.40;;;12.60;;
75823;SDS011;64457;51.976;9.834;2023-05-07T10:02:04;24.37;;;10.73;;
75823;SDS011;64457;51.976;9.834;2023-05-07T10:04:32;21.20;;;10.93;;
75823;SDS011;64457;51.976;9.834;2023-05-07T10:07:00;21.23;;;11.73;;
75823;SDS011;64457;51.976;9.834;2023-05-07T10:09:29;28.00;;;12.10;;
75823;SDS011;64457;51.976;9.834;2023-05-07T10:11:57;21.53;;;11.60;;
75823;SDS011;64457;51.976;9.834;2023-05-07T10:14:25;18.90;;;10.70;;
75823;SDS011;64457;51.976;9.834;2023-05-07T10:16:56;19.37;;;11.13;;
75823;SDS011;64457;51.976;9.834;2023-05-07T10:19:24;19.67;;;11.00;;
75823;SDS011;64457;51.976;9.834;2023-05-07T10:21:54;21.60;;;11.27;;
75823;SDS011;64457;51.976;9.834;2023-05-07T10:24:25;26.20;;;12.00;;
75823;SDS011;64457;51.976;9.834;2023-05-07T10:26:57;21.27;;;11.13;;
75823;SDS011;64457;51.976;9.834;2023-05-07T10:29:29;18.07;;;10.50;;
75823;SDS011;64457;51.976;9.834;2023-05-07T10:32:19;20.07;;;10.97;;
75823;SDS011;64457;51.976;9.834;2023-05-07T10:35:02;19.33;;;10.67;;
75823;SDS011;64457;51.976;9.834;2023-05-07T10:37:35;20.23;;;10.50;;
75823;SDS011;64457;51.976;9.834;2023-05-07T10:40:04;20.33;;;10.70;;
75823;SDS011;64457;51.976;9.834;2023-05-07T10:42:34;17.70;;;10.10;;
75823;SDS011;64457;51.976;9.834;2023-05-07T10:45:12;16.13;;;8.97;;
75823;SDS011;64457;51.976;9.834;2023-05-07T10:50:37;19.30;;;9.47;;
75823;SDS011;64457;51.976;9.834;2023-05-07T10:53:24;18.27;;;9.30;;
75823;SDS011;64457;51.976;9.834;2023-05-07T10:58:55;16.87;;;9.47;;
75823;SDS011;64457;51.976;9.834;2023-05-07T11:01:59;19.27;;;10.87;;
75823;SDS011;64457;51.976;9.834;2023-05-07T11:04:30;16.83;;;9.80;;
75823;SDS011;64457;51.976;9.834;2023-05-07T11:07:10;19.23;;;10.77;;
75823;SDS011;64457;51.976;9.834;2023-05-07T11:09:54;17.47;;;9.83;;
75823;SDS011;64457;51.976;9.834;2023-05-07T11:18:09;18.70;;;10.63;;
75823;SDS011;64457;51.976;9.834;2023-05-07T11:26:26;18.90;;;10.63;;
75823;SDS011;64457;51.976;9.834;2023-05-07T11:28:56;20.63;;;11.20;;
75823;SDS011;64457;51.976;9.834;2023-05-07T11:31:26;19.17;;;10.03;;
75823;SDS011;64457;51.976;9.834;2023-05-07T11:33:55;18.23;;;11.10;;
75823;SDS011;64457;51.976;9.834;2023-05-07T11:36:24;19.50;;;11.57;;
75823;SDS011;64457;51.976;9.834;2023-05-07T11:38:52;17.20;;;10.33;;
75823;SDS011;64457;51.976;9.834;2023-05-07T11:41:19;20.80;;;10.80;;
75823;SDS011;64457;51.976;9.834;2023-05-07T11:43:57;18.87;;;11.03;;
75823;SDS011;64457;51.976;9.834;2023-05-07T11:46:26;19.10;;;10.90;;
75823;SDS011;64457;51.976;9.834;2023-05-07T11:48:55;17.50;;;10.30;;
75823;SDS011;64457;51.976;9.834;2023-05-07T11:51:24;18.23;;;10.73;;
75823;SDS011;64457;51.976;9.834;2023-05-07T11:53:52;18.47;;;11.00;;
75823;SDS011;64457;51.976;9.834;2023-05-07T11:56:20;17.27;;;10.47;;
75823;SDS011;64457;51.976;9.834;2023-05-07T11:58:48;18.33;;;11.00;;
75823;SDS011;64457;51.976;9.834;2023-05-07T12:01:17;20.00;;;11.47;;
75823;SDS011;64457;51.976;9.834;2023-05-07T12:03:44;17.57;;;9.77;;
75823;SDS011;64457;51.976;9.834;2023-05-07T12:06:13;17.37;;;10.20;;
75823;SDS011;64457;51.976;9.834;2023-05-07T12:08:44;19.00;;;10.50;;
75823;SDS011;64457;51.976;9.834;2023-05-07T12:11:13;19.20;;;11.53;;
75823;SDS011;64457;51.976;9.834;2023-05-07T12:13:43;18.30;;;10.10;;
75823;SDS011;64457;51.976;9.834;2023-05-07T12:16:11;25.07;;;10.87;;
75823;SDS011;64457;51.976;9.834;2023-05-07T12:18:39;18.23;;;11.23;;
75823;SDS011;64457;51.976;9.834;2023-05-07T12:21:07;18.43;;;11.30;;
75823;SDS011;64457;51.976;9.834;2023-05-07T12:23:35;17.83;;;11.10;;
75823;SDS011;64457;51.976;9.834;2023-05-07T12:26:04;17.53;;;10.40;;
75823;SDS011;64457;51.976;9.834;2023-05-07T12:28:35;17.50;;;10.57;;
75823;SDS011;64457;51.976;9.834;2023-05-07T12:31:04;18.07;;;10.67;;
75823;SDS011;64457;51.976;9.834;2023-05-07T12:33:32;19.93;;;10.70;;
75823;SDS011;64457;51.976;9.834;2023-05-07T12:36:06;17.30;;;10.40;;
75823;SDS011;64457;51.976;9.834;2023-05-07T12:38:34;18.97;;;10.93;;
75823;SDS011;64457;51.976;9.834;2023-05-07T12:41:05;17.30;;;10.50;;
75823;SDS011;64457;51.976;9.834;2023-05-07T12:43:33;18.10;;;11.20;;
75823;SDS011;64457;51.976;9.834;2023-05-07T12:46:03;18.33;;;9.87;;
75823;SDS011;64457;51.976;9.834;2023-05-07T12:48:32;20.67;;;11.07;;
75823;SDS011;64457;51.976;9.834;2023-05-07T12:51:00;17.40;;;9.70;;
75823;SDS011;64457;51.976;9.834;2023-05-07T12:53:28;16.30;;;9.90;;
75823;SDS011;64457;51.976;9.834;2023-05-07T12:55:57;18.10;;;9.90;;
75823;SDS011;64457;51.976;9.834;2023-05-07T12:58:27;15.83;;;9.73;;
75823;SDS011;64457;51.976;9.834;2023-05-07T13:00:57;16.27;;;9.50;;
75823;SDS011;64457;51.976;9.834;2023-05-07T13:03:26;16.53;;;8.63;;
75823;SDS011;64457;51.976;9.834;2023-05-07T13:05:56;16.00;;;9.20;;
75823;SDS011;64457;51.976;9.834;2023-05-07T13:08:29;15.80;;;9.53;;
75823;SDS011;64457;51.976;9.834;2023-05-07T13:10:59;17.40;;;9.70;;
75823;SDS011;64457;51.976;9.834;2023-05-07T13:13:30;16.03;;;8.70;;
75823;SDS011;64457;51.976;9.834;2023-05-07T13:15:58;15.97;;;9.00;;
75823;SDS011;64457;51.976;9.834;2023-05-07T13:18:28;15.40;;;8.37;;
75823;SDS011;64457;51.976;9.834;2023-05-07T13:20:57;14.80;;;8.63;;
75823;SDS011;64457;51.976;9.834;2023-05-07T13:23:25;14.40;;;8.33;;
75823;SDS011;64457;51.976;9.834;2023-05-07T13:25:52;17.00;;;9.10;;
75823;SDS011;64457;51.976;9.834;2023-05-07T13:28:21;14.40;;;8.70;;
75823;SDS011;64457;51.976;9.834;2023-05-07T13:30:50;16.90;;;8.17;;
75823;SDS011;64457;51.976;9.834;2023-05-07T13:33:18;15.80;;;8.70;;
75823;SDS011;64457;51.976;9.834;2023-05-07T13:35:47;15.27;;;8.63;;
75823;SDS011;64457;51.976;9.834;2023-05-07T13:38:15;16.10;;;8.53;;
75823;SDS011;64457;51.976;9.834;2023-05-07T13:40:43;13.93;;;8.37;;
75823;SDS011;64457;51.976;9.834;2023-05-07T13:43:10;17.33;;;9.57;;
75823;SDS011;64457;51.976;9.834;2023-05-07T13:45:37;14.23;;;8.50;;
75823;SDS011;64457;51.976;9.834;2023-05-07T13:48:06;20.03;;;9.63;;
75823;SDS011;64457;51.976;9.834;2023-05-07T13:50:35;16.40;;;9.33;;
75823;SDS011;64457;51.976;9.834;2023-05-07T13:53:02;15.97;;;9.50;;
75823;SDS011;64457;51.976;9.834;2023-05-07T13:55:32;16.07;;;9.13;;
75823;SDS011;64457;51.976;9.834;2023-05-07T13:58:01;15.90;;;9.27;;
75823;SDS011;64457;51.976;9.834;2023-05-07T14:00:29;15.50;;;9.20;;
75823;SDS011;64457;51.976;9.834;2023-05-07T14:02:57;14.60;;;9.40;;
75823;SDS011;64457;51.976;9.834;2023-05-07T14:05:25;17.27;;;9.90;;
75823;SDS011;64457;51.976;9.834;2023-05-07T14:07:53;16.40;;;10.37;;
75823;SDS011;64457;51.976;9.834;2023-05-07T14:10:22;16.77;;;9.20;;
75823;SDS011;64457;51.976;9.834;2023-05-07T14:12:51;16.60;;;9.73;;
75823;SDS011;64457;51.976;9.834;2023-05-07T14:15:19;16.63;;;10.30;;
75823;SDS011;64457;51.976;9.834;2023-05-07T14:17:47;16.20;;;9.50;;
75823;SDS011;64457;51.976;9.834;2023-05-07T14:20:14;16.17;;;9.73;;
75823;SDS011;64457;51.976;9.834;2023-05-07T14:22:43;17.60;;;9.17;;
75823;SDS011;64457;51.976;9.834;2023-05-07T14:25:10;15.97;;;9.80;;
75823;SDS011;64457;51.976;9.834;2023-05-07T14:27:38;17.53;;;9.60;;
75823;SDS011;64457;51.976;9.834;2023-05-07T14:30:08;17.27;;;9.10;;
75823;SDS011;64457;51.976;9.834;2023-05-07T14:32:36;15.10;;;9.93;;
75823;SDS011;64457;51.976;9.834;2023-05-07T14:35:04;15.57;;;9.27;;
75823;SDS011;64457;51.976;9.834;2023-05-07T14:37:31;15.20;;;9.40;;
75823;SDS011;64457;51.976;9.834;2023-05-07T14:40:00;16.13;;;10.20;;
75823;SDS011;64457;51.976;9.834;2023-05-07T14:42:28;15.40;;;9.37;;
75823;SDS011;64457;51.976;9.834;2023-05-07T14:44:55;16.63;;;10.67;;
75823;SDS011;64457;51.976;9.834;2023-05-07T14:47:24;17.37;;;10.60;;
75823;SDS011;64457;51.976;9.834;2023-05-07T14:49:52;17.60;;;11.00;;